sensor_id;sensor_type;location;lat;lon;timestamp;P1;durP1;ratioP1;P2;durP2;ratioP2
5833;SDS011;2943;48.012;10.968;2022-09-20T00:01:25;2.10;;;2.00;;
5833;SDS011;2943;48.012;10.968;2022-09-20T00:03:54;3.47;;;2.10;;
5833;SDS011;2943;48.012;10.968;2022-09-20T00:06:24;2.40;;;2.20;;
5833;SDS011;2943;48.012;10.968;2022-09-20T00:08:53;3.03;;;2.50;;
5833;SDS011;2943;48.012;10.968;2022-09-20T00:11:21;3.53;;;1.90;;
5833;SDS011;2943;48.012;10.968;2022-09-20T00:13:49;3.00;;;2.30;;
5833;SDS011;2943;48.012;10.968;2022-09-20T00:16:19;2.80;;;2.37;;
5833;SDS011;2943;48.012;10.968;2022-09-20T00:18:49;3.90;;;2.00;;
5833;SDS011;2943;48.012;10.968;2022-09-20T00:21:16;5.67;;;3.40;;
5833;SDS011;2943;48.012;10.968;2022-09-20T00:23:44;4.80;;;2.20;;
5833;SDS011;2943;48.012;10.968;2022-09-20T00:26:11;4.10;;;2.60;;
5833;SDS011;2943;48.012;10.968;2022-09-20T00:28:39;2.77;;;2.53;;
5833;SDS011;2943;48.012;10.968;2022-09-20T00:31:05;2.20;;;2.00;;
5833;SDS011;2943;48.012;10.968;2022-09-20T00:33:34;2.50;;;2.30;;
5833;SDS011;2943;48.012;10.968;2022-09-20T00:36:20;5.20;;;2.60;;
5833;SDS011;2943;48.012;10.968;2022-09-20T00:38:47;2.20;;;2.00;;
5833;SDS011;2943;48.012;10.968;2022-09-20T00:41:15;2.67;;;2.47;;
5833;SDS011;2943;48.012;10.968;2022-09-20T00:43:42;4.70;;;2.10;;
5833;SDS011;2943;48.012;10.968;2022-09-20T00:46:14;3.50;;;2.60;;
5833;SDS011;2943;48.012;10.968;2022-09-20T00:48:46;4.10;;;2.50;;
5833;SDS011;2943;48.012;10.968;2022-09-20T00:51:16;3.17;;;2.40;;
5833;SDS011;2943;48.012;10.968;2022-09-20T00:53:49;2.67;;;2.40;;
5833;SDS011;2943;48.012;10.968;2022-09-20T00:56:18;2.50;;;2.30;;
5833;SDS011;2943;48.012;10.968;2022-09-20T00:58:50;3.53;;;2.83;;
5833;SDS011;2943;48.012;10.968;2022-09-20T01:01:24;3.90;;;2.90;;
5833;SDS011;2943;48.012;10.968;2022-09-20T01:03:51;7.80;;;2.67;;
5833;SDS011;2943;48.012;10.968;2022-09-20T01:06:19;3.57;;;2.53;;
5833;SDS011;2943;48.012;10.968;2022-09-20T01:08:49;2.70;;;2.50;;
5833;SDS011;2943;48.012;10.968;2022-09-20T01:11:19;5.53;;;2.70;;
5833;SDS011;2943;48.012;10.968;2022-09-20T01:13:46;4.70;;;2.53;;
5833;SDS011;2943;48.012;10.968;2022-09-20T01:16:13;3.10;;;2.57;;
5833;SDS011;2943;48.012;10.968;2022-09-20T01:18:42;2.53;;;2.30;;
5833;SDS011;2943;48.012;10.968;2022-09-20T01:21:10;2.63;;;2.43;;
5833;SDS011;2943;48.012;10.968;2022-09-20T01:23:43;3.77;;;2.97;;
5833;SDS011;2943;48.012;10.968;2022-09-20T01:29:36;2.70;;;2.50;;
5833;SDS011;2943;48.012;10.968;2022-09-20T01:32:18;2.90;;;2.67;;
5833;SDS011;2943;48.012;10.968;2022-09-20T01:34:49;2.80;;;2.60;;
5833;SDS011;2943;48.012;10.968;2022-09-20T01:37:21;2.90;;;2.67;;
5833;SDS011;2943;48.012;10.968;2022-09-20T01:39:53;3.53;;;2.83;;
5833;SDS011;2943;48.012;10.968;2022-09-20T01:42:30;3.17;;;2.77;;
5833;SDS011;2943;48.012;10.968;2022-09-20T01:45:02;5.20;;;2.83;;
5833;SDS011;2943;48.012;10.968;2022-09-20T01:47:40;6.10;;;2.90;;
5833;SDS011;2943;48.012;10.968;2022-09-20T01:50:18;2.70;;;2.50;;
5833;SDS011;2943;48.012;10.968;2022-09-20T01:53:15;3.70;;;3.00;;
5833;SDS011;2943;48.012;10.968;2022-09-20T02:02:27;2.70;;;2.50;;
5833;SDS011;2943;48.012;10.968;2022-09-20T02:05:12;5.70;;;2.80;;
5833;SDS011;2943;48.012;10.968;2022-09-20T02:08:07;2.57;;;2.30;;
5833;SDS011;2943;48.012;10.968;2022-09-20T02:11:01;3.70;;;2.20;;
5833;SDS011;2943;48.012;10.968;2022-09-20T02:13:32;4.27;;;2.33;;
5833;SDS011;2943;48.012;10.968;2022-09-20T02:16:27;5.43;;;2.70;;
5833;SDS011;2943;48.012;10.968;2022-09-20T02:19:09;2.20;;;2.00;;
5833;SDS011;2943;48.012;10.968;2022-09-20T02:22:08;6.47;;;2.50;;
5833;SDS011;2943;48.012;10.968;2022-09-20T02:24:43;3.27;;;2.80;;
5833;SDS011;2943;48.012;10.968;2022-09-20T02:27:17;4.07;;;2.37;;
5833;SDS011;2943;48.012;10.968;2022-09-20T02:29:56;3.20;;;2.30;;
5833;SDS011;2943;48.012;10.968;2022-09-20T02:32:36;4.40;;;2.50;;
5833;SDS011;2943;48.012;10.968;2022-09-20T02:38:06;2.10;;;2.00;;
5833;SDS011;2943;48.012;10.968;2022-09-20T02:41:03;2.50;;;2.30;;
5833;SDS011;2943;48.012;10.968;2022-09-20T02:43:46;6.73;;;2.23;;
5833;SDS011;2943;48.012;10.968;2022-09-20T02:46:22;2.83;;;2.33;;
5833;SDS011;2943;48.012;10.968;2022-09-20T02:48:57;1.90;;;1.80;;
5833;SDS011;2943;48.012;10.968;2022-09-20T02:51:29;7.13;;;2.80;;
5833;SDS011;2943;48.012;10.968;2022-09-20T02:54:08;5.00;;;2.97;;
5833;SDS011;2943;48.012;10.968;2022-09-20T02:56:44;6.90;;;2.97;;
5833;SDS011;2943;48.012;10.968;2022-09-20T02:59:19;5.97;;;2.90;;
5833;SDS011;2943;48.012;10.968;2022-09-20T03:01:55;2.73;;;2.53;;
5833;SDS011;2943;48.012;10.968;2022-09-20T03:04:34;7.00;;;3.10;;
5833;SDS011;2943;48.012;10.968;2022-09-20T03:07:11;3.17;;;2.30;;
5833;SDS011;2943;48.012;10.968;2022-09-20T03:09:53;10.03;;;3.53;;
5833;SDS011;2943;48.012;10.968;2022-09-20T03:12:32;4.00;;;2.30;;
5833;SDS011;2943;48.012;10.968;2022-09-20T03:15:10;2.93;;;2.63;;
5833;SDS011;2943;48.012;10.968;2022-09-20T03:17:47;7.00;;;2.60;;
5833;SDS011;2943;48.012;10.968;2022-09-20T03:20:23;3.93;;;2.90;;
5833;SDS011;2943;48.012;10.968;2022-09-20T03:22:57;4.73;;;2.70;;
5833;SDS011;2943;48.012;10.968;2022-09-20T03:25:50;5.67;;;2.53;;
5833;SDS011;2943;48.012;10.968;2022-09-20T03:28:34;9.07;;;3.03;;
5833;SDS011;2943;48.012;10.968;2022-09-20T03:31:18;2.30;;;2.10;;
5833;SDS011;2943;48.012;10.968;2022-09-20T03:33:57;3.30;;;2.47;;
5833;SDS011;2943;48.012;10.968;2022-09-20T03:36:43;3.43;;;2.80;;
5833;SDS011;2943;48.012;10.968;2022-09-20T03:39:30;5.60;;;3.10;;
5833;SDS011;2943;48.012;10.968;2022-09-20T03:42:11;7.53;;;3.80;;
5833;SDS011;2943;48.012;10.968;2022-09-20T03:47:53;3.10;;;2.53;;
5833;SDS011;2943;48.012;10.968;2022-09-20T03:50:33;2.97;;;2.67;;
5833;SDS011;2943;48.012;10.968;2022-09-20T03:53:26;4.30;;;2.33;;
5833;SDS011;2943;48.012;10.968;2022-09-20T03:56:11;3.47;;;2.30;;
5833;SDS011;2943;48.012;10.968;2022-09-20T03:59:05;6.40;;;3.10;;
5833;SDS011;2943;48.012;10.968;2022-09-20T04:01:47;4.40;;;2.60;;
5833;SDS011;2943;48.012;10.968;2022-09-20T04:04:38;3.20;;;2.22;;
5833;SDS011;2943;48.012;10.968;2022-09-20T04:07:11;2.40;;;2.20;;
5833;SDS011;2943;48.012;10.968;2022-09-20T04:12:39;3.10;;;2.47;;
5833;SDS011;2943;48.012;10.968;2022-09-20T04:15:29;5.17;;;2.80;;
5833;SDS011;2943;48.012;10.968;2022-09-20T04:18:04;8.30;;;3.37;;
5833;SDS011;2943;48.012;10.968;2022-09-20T04:20:52;4.87;;;2.70;;
5833;SDS011;2943;48.012;10.968;2022-09-20T04:23:29;3.70;;;2.60;;
5833;SDS011;2943;48.012;10.968;2022-09-20T04:26:03;5.23;;;2.30;;
5833;SDS011;2943;48.012;10.968;2022-09-20T04:28:33;4.33;;;2.90;;
5833;SDS011;2943;48.012;10.968;2022-09-20T04:31:13;3.90;;;2.67;;
5833;SDS011;2943;48.012;10.968;2022-09-20T04:33:49;2.60;;;2.40;;
5833;SDS011;2943;48.012;10.968;2022-09-20T04:36:29;6.03;;;3.60;;
5833;SDS011;2943;48.012;10.968;2022-09-20T04:39:15;6.60;;;2.47;;
5833;SDS011;2943;48.012;10.968;2022-09-20T04:42:16;7.73;;;2.80;;
5833;SDS011;2943;48.012;10.968;2022-09-20T04:45:13;4.60;;;3.20;;
5833;SDS011;2943;48.012;10.968;2022-09-20T04:47:56;2.60;;;2.40;;
5833;SDS011;2943;48.012;10.968;2022-09-20T04:51:10;5.30;;;3.53;;
5833;SDS011;2943;48.012;10.968;2022-09-20T04:57:04;6.23;;;3.53;;
5833;SDS011;2943;48.012;10.968;2022-09-20T04:59:54;4.13;;;3.27;;
5833;SDS011;2943;48.012;10.968;2022-09-20T05:05:44;3.07;;;2.80;;
5833;SDS011;2943;48.012;10.968;2022-09-20T05:08:34;7.50;;;3.37;;
5833;SDS011;2943;48.012;10.968;2022-09-20T05:14:27;2.93;;;2.73;;
5833;SDS011;2943;48.012;10.968;2022-09-20T05:17:11;11.43;;;3.43;;
5833;SDS011;2943;48.012;10.968;2022-09-20T05:19:51;4.90;;;3.20;;
5833;SDS011;2943;48.012;10.968;2022-09-20T05:23:03;3.40;;;2.80;;
5833;SDS011;2943;48.012;10.968;2022-09-20T05:25:57;7.60;;;3.07;;
5833;SDS011;2943;48.012;10.968;2022-09-20T05:28:34;4.70;;;2.57;;
5833;SDS011;2943;48.012;10.968;2022-09-20T05:31:10;4.37;;;2.40;;
5833;SDS011;2943;48.012;10.968;2022-09-20T05:33:42;8.37;;;3.23;;
5833;SDS011;2943;48.012;10.968;2022-09-20T05:36:16;5.23;;;2.63;;
5833;SDS011;2943;48.012;10.968;2022-09-20T05:38:53;7.23;;;3.20;;
5833;SDS011;2943;48.012;10.968;2022-09-20T05:41:28;5.37;;;3.00;;
5833;SDS011;2943;48.012;10.968;2022-09-20T05:44:05;6.20;;;3.90;;
5833;SDS011;2943;48.012;10.968;2022-09-20T05:46:43;9.97;;;3.20;;
5833;SDS011;2943;48.012;10.968;2022-09-20T05:49:25;5.93;;;3.70;;
5833;SDS011;2943;48.012;10.968;2022-09-20T05:52:13;4.83;;;3.60;;
5833;SDS011;2943;48.012;10.968;2022-09-20T05:54:56;6.43;;;2.90;;
5833;SDS011;2943;48.012;10.968;2022-09-20T05:57:39;6.23;;;3.30;;
5833;SDS011;2943;48.012;10.968;2022-09-20T06:00:20;3.67;;;2.90;;
5833;SDS011;2943;48.012;10.968;2022-09-20T06:02:52;5.87;;;2.83;;
5833;SDS011;2943;48.012;10.968;2022-09-20T06:05:26;4.80;;;2.67;;
5833;SDS011;2943;48.012;10.968;2022-09-20T06:13:58;9.40;;;3.17;;
5833;SDS011;2943;48.012;10.968;2022-09-20T06:16:36;7.73;;;3.07;;
5833;SDS011;2943;48.012;10.968;2022-09-20T06:19:14;7.83;;;2.90;;
5833;SDS011;2943;48.012;10.968;2022-09-20T06:21:49;6.60;;;2.87;;
5833;SDS011;2943;48.012;10.968;2022-09-20T06:24:22;4.47;;;2.60;;
5833;SDS011;2943;48.012;10.968;2022-09-20T06:26:54;5.30;;;3.20;;
5833;SDS011;2943;48.012;10.968;2022-09-20T06:29:28;7.23;;;3.20;;
5833;SDS011;2943;48.012;10.968;2022-09-20T06:31:58;4.23;;;2.83;;
5833;SDS011;2943;48.012;10.968;2022-09-20T06:34:25;8.73;;;3.20;;
5833;SDS011;2943;48.012;10.968;2022-09-20T06:36:57;6.27;;;2.70;;
5833;SDS011;2943;48.012;10.968;2022-09-20T06:39:48;7.00;;;2.80;;
5833;SDS011;2943;48.012;10.968;2022-09-20T06:42:41;5.47;;;2.80;;
5833;SDS011;2943;48.012;10.968;2022-09-20T06:45:09;7.67;;;3.33;;
5833;SDS011;2943;48.012;10.968;2022-09-20T06:47:36;8.00;;;3.47;;
5833;SDS011;2943;48.012;10.968;2022-09-20T06:50:04;3.50;;;2.50;;
5833;SDS011;2943;48.012;10.968;2022-09-20T06:52:31;3.50;;;2.50;;
5833;SDS011;2943;48.012;10.968;2022-09-20T06:54:59;9.27;;;2.93;;
5833;SDS011;2943;48.012;10.968;2022-09-20T06:57:33;3.23;;;2.93;;
5833;SDS011;2943;48.012;10.968;2022-09-20T07:00:03;5.20;;;3.10;;
5833;SDS011;2943;48.012;10.968;2022-09-20T07:02:32;3.20;;;2.50;;
5833;SDS011;2943;48.012;10.968;2022-09-20T07:04:59;3.00;;;2.70;;
5833;SDS011;2943;48.012;10.968;2022-09-20T07:07:25;3.90;;;3.27;;
5833;SDS011;2943;48.012;10.968;2022-09-20T07:09:52;3.53;;;2.70;;
5833;SDS011;2943;48.012;10.968;2022-09-20T07:12:19;4.90;;;2.80;;
5833;SDS011;2943;48.012;10.968;2022-09-20T07:14:46;6.43;;;2.57;;
5833;SDS011;2943;48.012;10.968;2022-09-20T07:17:14;4.10;;;2.83;;
5833;SDS011;2943;48.012;10.968;2022-09-20T07:19:42;5.70;;;3.10;;
5833;SDS011;2943;48.012;10.968;2022-09-20T07:22:09;8.53;;;2.87;;
5833;SDS011;2943;48.012;10.968;2022-09-20T07:24:36;4.13;;;2.80;;
5833;SDS011;2943;48.012;10.968;2022-09-20T07:27:05;5.43;;;2.90;;
5833;SDS011;2943;48.012;10.968;2022-09-20T07:29:32;7.50;;;2.83;;
5833;SDS011;2943;48.012;10.968;2022-09-20T07:31:59;3.90;;;2.60;;
5833;SDS011;2943;48.012;10.968;2022-09-20T07:34:26;6.13;;;2.70;;
5833;SDS011;2943;48.012;10.968;2022-09-20T07:36:55;11.47;;;2.83;;
5833;SDS011;2943;48.012;10.968;2022-09-20T07:39:23;7.37;;;3.07;;
5833;SDS011;2943;48.012;10.968;2022-09-20T07:41:50;10.67;;;3.30;;
5833;SDS011;2943;48.012;10.968;2022-09-20T07:44:18;7.00;;;2.87;;
5833;SDS011;2943;48.012;10.968;2022-09-20T07:46:49;3.50;;;2.87;;
5833;SDS011;2943;48.012;10.968;2022-09-20T07:49:16;7.33;;;2.93;;
5833;SDS011;2943;48.012;10.968;2022-09-20T07:51:44;10.47;;;3.30;;
5833;SDS011;2943;48.012;10.968;2022-09-20T07:54:12;5.60;;;2.80;;
5833;SDS011;2943;48.012;10.968;2022-09-20T07:56:39;14.17;;;3.00;;
5833;SDS011;2943;48.012;10.968;2022-09-20T07:59:06;10.43;;;3.07;;
5833;SDS011;2943;48.012;10.968;2022-09-20T08:01:34;11.33;;;3.90;;
5833;SDS011;2943;48.012;10.968;2022-09-20T08:04:01;11.83;;;2.80;;
5833;SDS011;2943;48.012;10.968;2022-09-20T08:06:29;8.67;;;3.23;;
5833;SDS011;2943;48.012;10.968;2022-09-20T08:08:57;7.93;;;3.27;;
5833;SDS011;2943;48.012;10.968;2022-09-20T08:11:26;8.17;;;4.23;;
5833;SDS011;2943;48.012;10.968;2022-09-20T08:13:55;7.13;;;3.23;;
5833;SDS011;2943;48.012;10.968;2022-09-20T08:16:23;7.87;;;3.50;;
5833;SDS011;2943;48.012;10.968;2022-09-20T08:18:52;5.73;;;3.40;;
5833;SDS011;2943;48.012;10.968;2022-09-20T08:21:21;8.53;;;3.10;;
5833;SDS011;2943;48.012;10.968;2022-09-20T08:23:48;19.53;;;3.10;;
5833;SDS011;2943;48.012;10.968;2022-09-20T08:26:16;12.37;;;3.10;;
5833;SDS011;2943;48.012;10.968;2022-09-20T08:28:46;9.00;;;3.03;;
5833;SDS011;2943;48.012;10.968;2022-09-20T08:31:17;4.40;;;2.87;;
5833;SDS011;2943;48.012;10.968;2022-09-20T08:33:45;7.20;;;3.27;;
5833;SDS011;2943;48.012;10.968;2022-09-20T08:36:14;9.10;;;3.40;;
5833;SDS011;2943;48.012;10.968;2022-09-20T08:38:43;8.03;;;3.57;;
5833;SDS011;2943;48.012;10.968;2022-09-20T08:41:11;10.93;;;3.63;;
5833;SDS011;2943;48.012;10.968;2022-09-20T08:43:43;3.97;;;3.10;;
5833;SDS011;2943;48.012;10.968;2022-09-20T08:46:16;8.03;;;3.30;;
5833;SDS011;2943;48.012;10.968;2022-09-20T08:48:45;8.33;;;3.47;;
5833;SDS011;2943;48.012;10.968;2022-09-20T08:51:13;6.67;;;3.47;;
5833;SDS011;2943;48.012;10.968;2022-09-20T08:53:44;8.63;;;3.80;;
5833;SDS011;2943;48.012;10.968;2022-09-20T08:56:13;7.00;;;4.10;;
5833;SDS011;2943;48.012;10.968;2022-09-20T08:58:40;10.13;;;4.47;;
5833;SDS011;2943;48.012;10.968;2022-09-20T09:01:10;10.50;;;4.00;;
5833;SDS011;2943;48.012;10.968;2022-09-20T09:03:45;7.30;;;4.10;;
5833;SDS011;2943;48.012;10.968;2022-09-20T09:06:12;8.43;;;4.37;;
5833;SDS011;2943;48.012;10.968;2022-09-20T09:08:43;5.30;;;4.43;;
5833;SDS011;2943;48.012;10.968;2022-09-20T09:11:14;9.13;;;4.80;;
5833;SDS011;2943;48.012;10.968;2022-09-20T09:13:43;9.27;;;5.17;;
5833;SDS011;2943;48.012;10.968;2022-09-20T09:16:19;9.83;;;5.30;;
5833;SDS011;2943;48.012;10.968;2022-09-20T09:18:47;12.97;;;5.60;;
5833;SDS011;2943;48.012;10.968;2022-09-20T09:21:16;9.80;;;5.80;;
5833;SDS011;2943;48.012;10.968;2022-09-20T09:23:48;9.93;;;6.30;;
5833;SDS011;2943;48.012;10.968;2022-09-20T09:26:18;14.17;;;7.10;;
5833;SDS011;2943;48.012;10.968;2022-09-20T09:31:34;12.07;;;6.60;;
5833;SDS011;2943;48.012;10.968;2022-09-20T09:34:03;13.20;;;6.77;;
5833;SDS011;2943;48.012;10.968;2022-09-20T09:36:30;14.30;;;7.33;;
5833;SDS011;2943;48.012;10.968;2022-09-20T09:41:48;10.30;;;6.43;;
5833;SDS011;2943;48.012;10.968;2022-09-20T09:44:18;7.53;;;6.00;;
5833;SDS011;2943;48.012;10.968;2022-09-20T09:46:48;13.97;;;7.47;;
5833;SDS011;2943;48.012;10.968;2022-09-20T09:49:18;13.03;;;5.83;;
5833;SDS011;2943;48.012;10.968;2022-09-20T09:51:59;11.93;;;5.97;;
5833;SDS011;2943;48.012;10.968;2022-09-20T09:54:28;13.60;;;6.10;;
5833;SDS011;2943;48.012;10.968;2022-09-20T09:57:00;13.03;;;6.00;;
5833;SDS011;2943;48.012;10.968;2022-09-20T09:59:50;7.70;;;5.80;;
5833;SDS011;2943;48.012;10.968;2022-09-20T10:02:42;7.47;;;6.70;;
5833;SDS011;2943;48.012;10.968;2022-09-20T10:05:21;9.80;;;6.10;;
5833;SDS011;2943;48.012;10.968;2022-09-20T10:07:54;14.70;;;6.73;;
5833;SDS011;2943;48.012;10.968;2022-09-20T10:10:28;10.00;;;5.73;;
5833;SDS011;2943;48.012;10.968;2022-09-20T10:13:08;8.67;;;5.50;;
5833;SDS011;2943;48.012;10.968;2022-09-20T10:15:40;12.27;;;6.50;;
5833;SDS011;2943;48.012;10.968;2022-09-20T10:18:18;6.73;;;5.43;;
5833;SDS011;2943;48.012;10.968;2022-09-20T10:21:00;14.97;;;5.77;;
5833;SDS011;2943;48.012;10.968;2022-09-20T10:23:43;9.73;;;6.43;;
5833;SDS011;2943;48.012;10.968;2022-09-20T10:29:18;8.87;;;5.40;;
5833;SDS011;2943;48.012;10.968;2022-09-20T10:31:54;14.50;;;6.30;;
5833;SDS011;2943;48.012;10.968;2022-09-20T10:34:42;12.23;;;4.83;;
5833;SDS011;2943;48.012;10.968;2022-09-20T10:37:40;5.20;;;4.50;;
5833;SDS011;2943;48.012;10.968;2022-09-20T10:40:21;9.80;;;5.20;;
5833;SDS011;2943;48.012;10.968;2022-09-20T10:43:18;11.87;;;4.23;;
5833;SDS011;2943;48.012;10.968;2022-09-20T10:45:57;10.00;;;4.87;;
5833;SDS011;2943;48.012;10.968;2022-09-20T10:48:36;5.93;;;3.73;;
5833;SDS011;2943;48.012;10.968;2022-09-20T10:51:09;6.40;;;3.80;;
5833;SDS011;2943;48.012;10.968;2022-09-20T10:53:46;6.33;;;3.60;;
5833;SDS011;2943;48.012;10.968;2022-09-20T10:56:23;8.60;;;3.77;;
5833;SDS011;2943;48.012;10.968;2022-09-20T10:59:02;7.03;;;3.77;;
5833;SDS011;2943;48.012;10.968;2022-09-20T11:01:52;8.40;;;3.83;;
5833;SDS011;2943;48.012;10.968;2022-09-20T11:04:31;7.63;;;3.70;;
5833;SDS011;2943;48.012;10.968;2022-09-20T11:07:25;6.03;;;4.07;;
5833;SDS011;2943;48.012;10.968;2022-09-20T11:10:04;7.50;;;4.00;;
5833;SDS011;2943;48.012;10.968;2022-09-20T11:12:40;9.53;;;3.43;;
5833;SDS011;2943;48.012;10.968;2022-09-20T11:15:13;5.13;;;3.00;;
5833;SDS011;2943;48.012;10.968;2022-09-20T11:17:44;7.40;;;3.60;;
5833;SDS011;2943;48.012;10.968;2022-09-20T11:20:21;6.37;;;3.00;;
5833;SDS011;2943;48.012;10.968;2022-09-20T11:22:54;8.57;;;3.23;;
5833;SDS011;2943;48.012;10.968;2022-09-20T11:25:29;11.87;;;3.30;;
5833;SDS011;2943;48.012;10.968;2022-09-20T11:28:00;9.40;;;3.50;;
5833;SDS011;2943;48.012;10.968;2022-09-20T11:30:34;5.13;;;3.13;;
5833;SDS011;2943;48.012;10.968;2022-09-20T11:33:11;5.87;;;3.00;;
5833;SDS011;2943;48.012;10.968;2022-09-20T11:35:45;6.10;;;3.63;;
5833;SDS011;2943;48.012;10.968;2022-09-20T11:38:24;13.70;;;4.40;;
5833;SDS011;2943;48.012;10.968;2022-09-20T11:40:54;10.43;;;4.00;;
5833;SDS011;2943;48.012;10.968;2022-09-20T11:43:24;6.97;;;3.33;;
5833;SDS011;2943;48.012;10.968;2022-09-20T11:45:54;7.13;;;3.60;;
5833;SDS011;2943;48.012;10.968;2022-09-20T11:48:25;11.43;;;3.93;;
5833;SDS011;2943;48.012;10.968;2022-09-20T11:51:05;7.47;;;3.50;;
5833;SDS011;2943;48.012;10.968;2022-09-20T11:53:53;9.53;;;3.40;;
5833;SDS011;2943;48.012;10.968;2022-09-20T11:56:28;12.10;;;3.97;;
5833;SDS011;2943;48.012;10.968;2022-09-20T11:58:59;4.97;;;3.10;;
5833;SDS011;2943;48.012;10.968;2022-09-20T12:01:28;9.50;;;3.80;;
5833;SDS011;2943;48.012;10.968;2022-09-20T12:03:58;5.13;;;3.57;;
5833;SDS011;2943;48.012;10.968;2022-09-20T12:06:28;5.53;;;3.03;;
5833;SDS011;2943;48.012;10.968;2022-09-20T12:08:59;12.50;;;4.40;;
5833;SDS011;2943;48.012;10.968;2022-09-20T12:11:30;8.17;;;3.77;;
5833;SDS011;2943;48.012;10.968;2022-09-20T12:14:00;6.23;;;2.53;;
5833;SDS011;2943;48.012;10.968;2022-09-20T12:16:37;10.50;;;4.00;;
5833;SDS011;2943;48.012;10.968;2022-09-20T12:19:07;13.30;;;3.50;;
5833;SDS011;2943;48.012;10.968;2022-09-20T12:24:43;6.77;;;3.10;;
5833;SDS011;2943;48.012;10.968;2022-09-20T12:27:20;10.30;;;3.27;;
5833;SDS011;2943;48.012;10.968;2022-09-20T12:30:14;5.30;;;2.63;;
5833;SDS011;2943;48.012;10.968;2022-09-20T12:35:52;6.20;;;2.67;;
5833;SDS011;2943;48.012;10.968;2022-09-20T12:38:58;5.00;;;2.40;;
5833;SDS011;2943;48.012;10.968;2022-09-20T12:41:28;3.60;;;2.50;;
5833;SDS011;2943;48.012;10.968;2022-09-20T12:44:22;8.23;;;2.50;;
5833;SDS011;2943;48.012;10.968;2022-09-20T12:46:52;5.17;;;1.90;;
5833;SDS011;2943;48.012;10.968;2022-09-20T12:52:30;6.17;;;2.33;;
5833;SDS011;2943;48.012;10.968;2022-09-20T12:55:29;9.50;;;2.10;;
5833;SDS011;2943;48.012;10.968;2022-09-20T12:58:21;4.53;;;2.13;;
5833;SDS011;2943;48.012;10.968;2022-09-20T13:03:51;12.33;;;2.57;;
5833;SDS011;2943;48.012;10.968;2022-09-20T13:06:21;3.67;;;2.23;;
5833;SDS011;2943;48.012;10.968;2022-09-20T13:09:03;6.77;;;2.57;;
5833;SDS011;2943;48.012;10.968;2022-09-20T13:11:33;4.23;;;2.10;;
5833;SDS011;2943;48.012;10.968;2022-09-20T13:14:09;5.73;;;2.57;;
5833;SDS011;2943;48.012;10.968;2022-09-20T13:16:41;4.30;;;2.40;;
5833;SDS011;2943;48.012;10.968;2022-09-20T13:19:15;9.90;;;2.83;;
5833;SDS011;2943;48.012;10.968;2022-09-20T13:21:49;4.00;;;2.37;;
5833;SDS011;2943;48.012;10.968;2022-09-20T13:24:20;7.77;;;2.60;;
5833;SDS011;2943;48.012;10.968;2022-09-20T13:26:49;5.90;;;2.10;;
5833;SDS011;2943;48.012;10.968;2022-09-20T13:29:21;6.83;;;2.33;;
5833;SDS011;2943;48.012;10.968;2022-09-20T13:31:52;7.77;;;2.83;;
5833;SDS011;2943;48.012;10.968;2022-09-20T13:34:20;3.00;;;2.00;;
5833;SDS011;2943;48.012;10.968;2022-09-20T13:36:50;6.83;;;2.83;;
5833;SDS011;2943;48.012;10.968;2022-09-20T13:39:27;4.40;;;2.00;;
5833;SDS011;2943;48.012;10.968;2022-09-20T13:41:59;2.90;;;1.73;;
5833;SDS011;2943;48.012;10.968;2022-09-20T13:44:32;4.37;;;1.80;;
5833;SDS011;2943;48.012;10.968;2022-09-20T13:47:01;2.00;;;1.80;;
5833;SDS011;2943;48.012;10.968;2022-09-20T13:49:46;5.20;;;2.10;;
5833;SDS011;2943;48.012;10.968;2022-09-20T13:52:20;3.80;;;1.80;;
5833;SDS011;2943;48.012;10.968;2022-09-20T13:54:48;3.10;;;1.70;;
5833;SDS011;2943;48.012;10.968;2022-09-20T13:57:17;4.77;;;1.90;;
5833;SDS011;2943;48.012;10.968;2022-09-20T13:59:48;6.93;;;1.80;;
5833;SDS011;2943;48.012;10.968;2022-09-20T14:02:19;11.33;;;2.20;;
5833;SDS011;2943;48.012;10.968;2022-09-20T14:04:48;6.63;;;1.90;;
5833;SDS011;2943;48.012;10.968;2022-09-20T14:07:18;3.60;;;2.00;;
5833;SDS011;2943;48.012;10.968;2022-09-20T14:09:45;11.40;;;2.20;;
5833;SDS011;2943;48.012;10.968;2022-09-20T14:12:12;3.10;;;1.63;;
5833;SDS011;2943;48.012;10.968;2022-09-20T14:14:39;4.70;;;1.80;;
5833;SDS011;2943;48.012;10.968;2022-09-20T14:17:08;3.60;;;2.13;;
5833;SDS011;2943;48.012;10.968;2022-09-20T14:19:40;8.87;;;2.50;;
5833;SDS011;2943;48.012;10.968;2022-09-20T14:22:12;4.07;;;2.00;;
5833;SDS011;2943;48.012;10.968;2022-09-20T14:24:54;4.70;;;2.17;;
5833;SDS011;2943;48.012;10.968;2022-09-20T14:27:23;10.30;;;2.10;;
5833;SDS011;2943;48.012;10.968;2022-09-20T14:29:50;4.20;;;2.03;;
5833;SDS011;2943;48.012;10.968;2022-09-20T14:32:32;5.07;;;2.00;;
5833;SDS011;2943;48.012;10.968;2022-09-20T14:35:04;10.77;;;3.27;;
5833;SDS011;2943;48.012;10.968;2022-09-20T14:37:40;5.57;;;2.13;;
5833;SDS011;2943;48.012;10.968;2022-09-20T14:40:15;2.73;;;1.80;;
5833;SDS011;2943;48.012;10.968;2022-09-20T14:42:46;4.70;;;2.40;;
5833;SDS011;2943;48.012;10.968;2022-09-20T14:45:19;5.83;;;1.90;;
5833;SDS011;2943;48.012;10.968;2022-09-20T14:47:54;2.83;;;1.93;;
5833;SDS011;2943;48.012;10.968;2022-09-20T14:50:24;3.97;;;1.70;;
5833;SDS011;2943;48.012;10.968;2022-09-20T14:55:54;4.07;;;1.83;;
5833;SDS011;2943;48.012;10.968;2022-09-20T14:58:32;4.07;;;1.90;;
5833;SDS011;2943;48.012;10.968;2022-09-20T15:01:21;5.77;;;1.87;;
5833;SDS011;2943;48.012;10.968;2022-09-20T15:03:51;2.37;;;2.17;;
5833;SDS011;2943;48.012;10.968;2022-09-20T15:06:18;5.13;;;2.00;;
5833;SDS011;2943;48.012;10.968;2022-09-20T15:08:45;10.27;;;2.17;;
5833;SDS011;2943;48.012;10.968;2022-09-20T15:11:12;4.30;;;2.30;;
5833;SDS011;2943;48.012;10.968;2022-09-20T15:13:40;8.90;;;1.93;;
5833;SDS011;2943;48.012;10.968;2022-09-20T15:16:06;6.33;;;2.20;;
5833;SDS011;2943;48.012;10.968;2022-09-20T15:18:34;7.03;;;2.23;;
5833;SDS011;2943;48.012;10.968;2022-09-20T15:21:06;6.30;;;2.30;;
5833;SDS011;2943;48.012;10.968;2022-09-20T15:23:34;5.57;;;2.20;;
5833;SDS011;2943;48.012;10.968;2022-09-20T15:26:03;3.23;;;1.77;;
5833;SDS011;2943;48.012;10.968;2022-09-20T15:28:32;3.80;;;1.90;;
5833;SDS011;2943;48.012;10.968;2022-09-20T15:30:59;4.63;;;2.00;;
5833;SDS011;2943;48.012;10.968;2022-09-20T15:33:27;4.10;;;2.00;;
5833;SDS011;2943;48.012;10.968;2022-09-20T15:35:55;4.30;;;1.93;;
5833;SDS011;2943;48.012;10.968;2022-09-20T15:38:23;4.93;;;2.20;;
5833;SDS011;2943;48.012;10.968;2022-09-20T15:40:51;5.00;;;2.43;;
5833;SDS011;2943;48.012;10.968;2022-09-20T15:43:19;4.00;;;2.07;;
5833;SDS011;2943;48.012;10.968;2022-09-20T15:45:48;6.87;;;1.80;;
5833;SDS011;2943;48.012;10.968;2022-09-20T15:48:17;4.33;;;1.90;;
5833;SDS011;2943;48.012;10.968;2022-09-20T15:50:52;5.73;;;2.00;;
5833;SDS011;2943;48.012;10.968;2022-09-20T15:53:27;7.47;;;2.63;;
5833;SDS011;2943;48.012;10.968;2022-09-20T15:55:56;6.57;;;2.37;;
5833;SDS011;2943;48.012;10.968;2022-09-20T15:58:27;5.77;;;1.83;;
5833;SDS011;2943;48.012;10.968;2022-09-20T16:01:00;2.33;;;2.00;;
5833;SDS011;2943;48.012;10.968;2022-09-20T16:03:29;3.83;;;1.93;;
5833;SDS011;2943;48.012;10.968;2022-09-20T16:05:58;4.50;;;2.10;;
5833;SDS011;2943;48.012;10.968;2022-09-20T16:08:27;4.97;;;2.20;;
5833;SDS011;2943;48.012;10.968;2022-09-20T16:10:56;9.40;;;2.10;;
5833;SDS011;2943;48.012;10.968;2022-09-20T16:13:23;19.83;;;2.30;;
5833;SDS011;2943;48.012;10.968;2022-09-20T16:15:53;4.97;;;1.90;;
5833;SDS011;2943;48.012;10.968;2022-09-20T16:18:21;4.03;;;2.13;;
5833;SDS011;2943;48.012;10.968;2022-09-20T16:21:06;5.23;;;2.10;;
5833;SDS011;2943;48.012;10.968;2022-09-20T16:23:37;7.50;;;2.03;;
5833;SDS011;2943;48.012;10.968;2022-09-20T16:26:04;4.87;;;1.70;;
5833;SDS011;2943;48.012;10.968;2022-09-20T16:28:31;4.10;;;1.87;;
5833;SDS011;2943;48.012;10.968;2022-09-20T16:30:58;6.03;;;1.83;;
5833;SDS011;2943;48.012;10.968;2022-09-20T16:33:25;5.93;;;1.80;;
5833;SDS011;2943;48.012;10.968;2022-09-20T16:35:52;6.80;;;2.20;;
5833;SDS011;2943;48.012;10.968;2022-09-20T16:38:20;2.50;;;1.90;;
5833;SDS011;2943;48.012;10.968;2022-09-20T16:40:49;5.93;;;2.20;;
5833;SDS011;2943;48.012;10.968;2022-09-20T16:43:16;2.30;;;2.07;;